Time;durP1;ratioP1;P1;durP2;ratioP2;P2;SDS_P1;SDS_P2;PMS_P1;PMS_P2;Temp;Humidity;BMP_temperature;BMP_pressure;BME280_temperature;BME280_humidity;BME280_pressure;Samples;Min_cycle;Max_cycle;Signal;HPM_P1;HPM_P2
2022/04/24 00:01:32;;;;;;;5.35;4.85;;;;;;;11.40;60.54;100393.91;10317888;28;20119;-74
2022/04/24 00:06:32;;;;;;;5.47;4.22;;;;;;;11.33;61.41;100388.53;10333463;28;20065;-75
2022/04/24 00:11:33;;;;;;;5.18;4.68;;;;;;;11.17;62.23;100397.97;10317467;28;20042;-74
2022/04/24 00:16:33;;;;;;;7.47;4.75;;;;;;;11.10;62.68;100390.88;10316442;28;20038;-74
2022/04/24 00:21:34;;;;;;;6.10;5.50;;;;;;;11.10;61.23;100391.75;10333714;28;20065;-75
2022/04/24 00:26:35;;;;;;;5.68;5.18;;;;;;;10.89;61.88;100406.38;10333281;28;20046;-73
2022/04/24 00:31:35;;;;;;;5.80;5.30;;;;;;;10.59;65.56;100387.06;10317158;28;20073;-73
2022/04/24 00:36:35;;;;;;;9.82;5.55;;;;;;;10.43;66.05;100391.03;10331992;28;20078;-74
2022/04/24 00:41:46;;;;;;;6.35;5.72;;;;;;;10.23;68.63;100392.84;10333209;28;20105;-73
2022/04/24 00:46:52;;;;;;;6.57;6.03;;;;;;;10.16;68.96;100390.16;10334990;28;20550;-73
2022/04/24 00:51:53;;;;;;;6.07;5.57;;;;;;;10.18;68.02;100398.06;10341372;28;20470;-74
2022/04/24 00:56:53;;;;;;;9.13;6.90;;;;;;;10.26;65.61;100381.66;10323339;28;20038;-74
2022/04/24 01:01:53;;;;;;;5.90;5.35;;;;;;;10.16;66.28;100378.50;10340158;28;20549;-74
2022/04/24 01:06:54;;;;;;;18.88;6.32;;;;;;;10.04;68.97;100385.56;10322812;28;20034;-74
2022/04/24 01:11:55;;;;;;;6.93;6.35;;;;;;;10.01;67.73;100393.03;10322867;28;20438;-74
2022/04/24 01:16:56;;;;;;;16.63;6.40;;;;;;;9.84;68.87;100389.06;10306849;28;20502;-74
2022/04/24 01:21:56;;;;;;;12.18;7.88;;;;;;;9.73;70.29;100384.25;10338570;28;20077;-75
2022/04/24 01:26:57;;;;;;;7.18;6.47;;;;;;;9.63;69.45;100383.81;10339543;28;20042;-74
2022/04/24 01:31:57;;;;;;;11.57;7.05;;;;;;;9.49;71.79;100385.66;10327612;28;20031;-74
2022/04/24 01:36:57;;;;;;;7.22;6.35;;;;;;;9.45;71.86;100384.41;10350021;28;20080;-75
2022/04/24 01:41:58;;;;;;;8.55;7.35;;;;;;;9.32;73.92;100393.28;10351542;28;20030;-73
2022/04/24 01:46:58;;;;;;;9.55;8.48;;;;;;;9.24;73.15;100393.47;10335833;28;20053;-74
2022/04/24 01:51:59;;;;;;;10.05;8.77;;;;;;;9.15;75.68;100391.94;10346479;28;20101;-74
2022/04/24 01:56:59;;;;;;;10.07;9.02;;;;;;;9.10;76.41;100395.28;10321874;28;20065;-74
2022/04/24 02:01:59;;;;;;;9.98;9.07;;;;;;;9.07;77.77;100401.91;10319536;28;20041;-74
2022/04/24 02:07:00;;;;;;;14.43;10.98;;;;;;;9.04;79.94;100391.50;10337775;28;20490;-75
2022/04/24 02:12:00;;;;;;;15.98;10.80;;;;;;;9.11;77.77;100399.63;10337774;28;20042;-74
2022/04/24 02:17:00;;;;;;;11.52;10.32;;;;;;;9.02;77.90;100393.56;10320619;28;20080;-74
2022/04/24 02:22:01;;;;;;;15.80;11.13;;;;;;;8.99;80.58;100404.75;10337836;28;20089;-74
2022/04/24 02:27:01;;;;;;;17.38;12.27;;;;;;;8.95;82.83;100397.25;10338041;28;20045;-74
2022/04/24 02:32:02;;;;;;;14.15;12.30;;;;;;;8.89;84.38;100392.66;10337811;28;20042;-75
2022/04/24 02:37:02;;;;;;;14.77;10.85;;;;;;;8.97;83.83;100401.44;10340892;28;20120;-74
2022/04/24 02:42:03;;;;;;;21.50;11.55;;;;;;;8.97;84.43;100401.44;10337711;28;20371;-74
2022/04/24 02:47:04;;;;;;;25.33;14.60;;;;;;;8.92;84.63;100398.50;10336100;28;20041;-75
2022/04/24 02:52:04;;;;;;;13.38;11.23;;;;;;;8.90;86.67;100400.53;10319559;28;20098;-74
2022/04/24 02:57:05;;;;;;;14.20;12.68;;;;;;;8.95;86.32;100408.91;10336840;28;20089;-75
2022/04/24 03:02:06;;;;;;;19.13;13.30;;;;;;;8.95;85.75;100414.28;10336457;28;20039;-75
2022/04/24 03:07:06;;;;;;;23.50;12.75;;;;;;;8.86;87.46;100415.47;10336992;28;20097;-75
2022/04/24 03:12:07;;;;;;;15.93;11.63;;;;;;;8.87;86.61;100408.22;10336054;28;20376;-73
2022/04/24 03:17:07;;;;;;;13.35;11.50;;;;;;;8.79;87.70;100406.50;10319251;28;20041;-74
2022/04/24 03:22:08;;;;;;;12.10;10.85;;;;;;;8.72;88.04;100411.03;10335365;28;20057;-75
2022/04/24 03:27:08;;;;;;;16.08;12.73;;;;;;;8.69;88.01;100414.97;10334705;28;20089;-74
2022/04/24 03:32:09;;;;;;;12.45;10.98;;;;;;;8.65;87.79;100412.84;10334908;28;20050;-74
2022/04/24 03:37:09;;;;;;;12.90;11.18;;;;;;;8.59;88.05;100411.78;10333852;28;20050;-75
2022/04/24 03:42:10;;;;;;;15.95;10.88;;;;;;;8.58;85.95;100410.97;10317455;28;20057;-74
2022/04/24 03:47:10;;;;;;;13.30;11.63;;;;;;;8.47;86.92;100406.09;10334360;28;20034;-76
2022/04/24 03:52:11;;;;;;;13.85;11.57;;;;;;;8.39;86.36;100392.72;10333633;28;20066;-74
2022/04/24 03:57:12;;;;;;;14.75;11.80;;;;;;;8.38;87.03;100404.56;10334692;28;20043;-76
2022/04/24 04:02:12;;;;;;;16.92;12.48;;;;;;;8.27;88.71;100410.47;10332846;28;20070;-74
2022/04/24 04:07:12;;;;;;;14.65;10.77;;;;;;;8.27;87.61;100408.59;10332941;28;20093;-72
2022/04/24 04:12:13;;;;;;;12.68;11.15;;;;;;;8.21;88.01;100412.06;10334407;28;20125;-74
2022/04/24 04:17:13;;;;;;;12.45;10.25;;;;;;;8.09;89.59;100413.59;10317507;28;20038;-74
2022/04/24 04:22:14;;;;;;;13.07;11.73;;;;;;;8.11;89.00;100419.66;10334407;28;20470;-75
2022/04/24 04:27:15;;;;;;;18.70;10.35;;;;;;;8.06;89.35;100419.38;10325188;28;20129;-74
2022/04/24 04:32:15;;;;;;;11.55;10.45;;;;;;;8.03;90.12;100415.22;10325491;28;20426;-75
2022/04/24 04:37:15;;;;;;;14.77;11.32;;;;;;;8.08;88.10;100428.13;10342340;28;20065;-72
2022/04/24 04:42:16;;;;;;;21.08;10.63;;;;;;;7.99;90.56;100427.41;10341725;28;20034;-74
2022/04/24 04:47:16;;;;;;;11.77;9.18;;;;;;;8.04;89.09;100425.00;10342686;28;20045;-76
2022/04/24 04:52:17;;;;;;;11.07;9.57;;;;;;;8.02;89.05;100427.03;10324801;28;20042;-75
2022/04/24 04:57:17;;;;;;;14.43;9.15;;;;;;;8.06;89.27;100435.56;10340682;28;20053;-75
2022/04/24 05:02:17;;;;;;;11.80;9.20;;;;;;;8.14;89.45;100433.59;10340251;28;20458;-75
2022/04/24 05:07:18;;;;;;;13.07;10.25;;;;;;;8.25;88.47;100442.19;10323162;28;20474;-74
2022/04/24 05:12:18;;;;;;;10.13;9.10;;;;;;;8.35;87.87;100450.78;10340273;28;20057;-75
2022/04/24 05:17:19;;;;;;;13.45;9.57;;;;;;;8.44;87.60;100457.75;10322833;28;20061;-75
2022/04/24 05:22:19;;;;;;;11.48;9.15;;;;;;;8.55;86.88;100468.03;10340642;28;20053;-75
2022/04/24 05:27:20;;;;;;;9.65;8.45;;;;;;;8.62;86.89;100457.28;10322615;28;20042;-75
2022/04/24 05:32:20;;;;;;;9.90;8.88;;;;;;;8.74;87.02;100477.31;10323719;28;20042;-75
2022/04/24 05:37:20;;;;;;;8.50;7.70;;;;;;;9.26;85.08;100478.69;10337895;28;20058;-74
2022/04/24 05:42:21;;;;;;;11.45;7.45;;;;;;;10.45;79.58;100469.31;10339818;28;20479;-74
2022/04/24 05:47:21;;;;;;;9.98;6.78;;;;;;;11.29;76.13;100465.03;10307057;28;20058;-75
2022/04/24 05:52:23;;;;;;;8.35;7.57;;;;;;;11.79;73.36;100471.53;10337584;28;20379;-75
2022/04/24 05:57:24;;;;;;;7.65;5.80;;;;;;;12.28;70.34;100469.19;10338540;28;20403;-75
2022/04/24 06:02:25;;;;;;;7.47;6.68;;;;;;;12.86;67.58;100473.53;10338468;28;20038;-75
2022/04/24 06:07:25;;;;;;;7.55;6.85;;;;;;;13.33;65.52;100473.94;10338422;28;20478;-74
2022/04/24 06:12:26;;;;;;;6.65;5.90;;;;;;;13.45;64.54;100474.84;10336099;28;20069;-75
2022/04/24 06:17:26;;;;;;;9.35;7.20;;;;;;;13.79;63.60;100480.75;10337792;28;20121;-75
2022/04/24 06:22:26;;;;;;;6.75;5.68;;;;;;;14.26;62.05;100484.47;10337919;28;20038;-76
2022/04/24 06:27:27;;;;;;;6.32;5.72;;;;;;;14.23;61.36;100476.78;10337023;28;20471;-75
2022/04/24 06:32:28;;;;;;;14.82;9.52;;;;;;;14.43;60.54;100479.19;10337370;28;20106;-76
2022/04/24 06:37:28;;;;;;;7.40;6.05;;;;;;;14.81;59.10;100494.34;10337167;28;20482;-76
2022/04/24 06:42:29;;;;;;;5.55;5.07;;;;;;;14.61;59.18;100492.78;10320292;28;20058;-77
2022/04/24 06:47:29;;;;;;;5.85;5.30;;;;;;;14.86;58.75;100483.56;10318971;28;20409;-74
2022/04/24 06:52:30;;;;;;;5.18;4.78;;;;;;;15.10;57.18;100485.22;10320031;28;20030;-74
2022/04/24 06:57:30;;;;;;;5.88;5.38;;;;;;;15.52;57.16;100498.69;10336900;28;20034;-76
2022/04/24 07:02:30;;;;;;;7.60;5.70;;;;;;;16.02;55.15;100484.47;10336126;28;20062;-76
2022/04/24 07:07:31;;;;;;;6.30;5.65;;;;;;;16.51;53.53;100495.75;10336960;28;20483;-77
2022/04/24 07:12:31;;;;;;;6.88;5.35;;;;;;;16.82;51.51;100482.63;10335686;28;20034;-75
2022/04/24 07:17:32;;;;;;;5.80;5.28;;;;;;;16.73;51.20;100497.75;10335682;28;20077;-75
2022/04/24 07:23:05;;;;;;;5.47;4.95;;;;;;;16.84;50.70;100502.31;10318089;28;20049;-75
2022/04/24 07:28:05;;;;;;;6.90;6.30;;;;;;;17.08;50.07;100500.25;10317584;28;20038;-75
2022/04/24 07:33:05;;;;;;;7.47;6.03;;;;;;;16.77;50.57;100500.84;10334609;28;20085;-77
2022/04/24 07:38:06;;;;;;;6.25;5.72;;;;;;;17.20;50.44;100503.72;10336942;28;20148;-75
2022/04/24 07:43:08;;;;;;;5.90;4.90;;;;;;;17.49;49.19;100503.59;10317492;28;20038;-77
2022/04/24 07:48:09;;;;;;;5.03;4.63;;;;;;;17.85;48.17;100504.91;10316574;28;20031;-78
2022/04/24 07:53:10;;;;;;;5.95;4.72;;;;;;;18.06;46.68;100507.84;10332809;28;20056;-76
2022/04/24 07:58:10;;;;;;;6.40;5.57;;;;;;;17.82;48.48;100494.44;10331578;28;20030;-75
2022/04/24 08:03:12;;;;;;;5.25;4.80;;;;;;;18.40;46.61;100515.91;10333040;28;20081;-75
2022/04/24 08:08:19;;;;;;;6.00;5.40;;;;;;;18.17;45.96;100525.25;10332664;28;20050;-75
2022/04/24 08:13:20;;;;;;;7.75;5.80;;;;;;;18.51;45.43;100529.47;10332874;28;20061;-77
2022/04/24 08:18:20;;;;;;;5.20;4.45;;;;;;;18.49;46.16;100530.81;10334770;28;20481;-75
2022/04/24 08:23:21;;;;;;;4.72;4.43;;;;;;;19.32;43.99;100513.94;10334113;28;20118;-76
2022/04/24 08:28:22;;;;;;;5.53;5.07;;;;;;;19.51;43.31;100528.91;10333342;28;20462;-76
2022/04/24 08:33:22;;;;;;;6.72;4.97;;;;;;;19.65;43.07;100532.00;10333327;28;20412;-76
2022/04/24 08:38:23;;;;;;;8.20;4.97;;;;;;;19.90;43.53;100534.06;10332116;28;20058;-75
2022/04/24 08:43:23;;;;;;;7.60;5.30;;;;;;;20.44;42.03;100530.91;10333043;28;20447;-74
2022/04/24 08:48:24;;;;;;;8.65;5.57;;;;;;;20.88;41.39;100541.47;10315547;28;20031;-75
2022/04/24 08:53:27;;;;;;;6.53;5.97;;;;;;;20.74;41.22;100546.69;10315855;28;20117;-76
2022/04/24 08:58:28;;;;;;;8.07;5.95;;;;;;;20.95;41.44;100544.75;10315318;28;20466;-76
2022/04/24 09:03:28;;;;;;;6.82;5.78;;;;;;;20.43;41.26;100546.59;10301037;28;20093;-75
2022/04/24 09:08:30;;;;;;;10.00;6.15;;;;;;;20.46;41.39;100549.91;10331483;28;20470;-76
2022/04/24 09:14:14;;;;;;;5.55;4.70;;;;;;;20.56;41.26;100548.03;10324821;28;20034;-76
2022/04/24 09:18:55;;;;;;;8.88;6.38;;;;;;;20.85;40.68;100536.50;10325088;28;20049;-76
2022/04/24 09:24:00;;;;;;;8.13;6.43;;;;;;;20.72;40.59;100559.06;10322673;28;20047;-75
2022/04/24 09:29:00;;;;;;;5.72;5.20;;;;;;;20.75;40.56;100553.00;10322352;28;20080;-75
2022/04/24 09:34:00;;;;;;;7.25;5.90;;;;;;;21.44;39.93;100565.38;10323017;28;20537;-77
2022/04/24 09:39:01;;;;;;;8.27;5.80;;;;;;;22.21;38.95;100553.06;10339023;28;20058;-76
2022/04/24 09:44:13;;;;;;;11.10;5.03;;;;;;;22.06;39.17;100564.94;10321913;28;20494;-75
2022/04/24 09:49:14;;;;;;;5.57;5.07;;;;;;;21.88;37.92;100556.47;10306407;28;20117;-75
2022/04/24 09:54:14;;;;;;;5.85;4.95;;;;;;;22.05;37.64;100559.72;10321588;28;20466;-75
2022/04/24 09:59:14;;;;;;;6.32;5.72;;;;;;;22.06;37.50;100553.91;10322098;28;20062;-74
2022/04/24 10:04:15;;;;;;;6.53;5.57;;;;;;;22.66;37.90;100556.63;10320694;28;20030;-75
2022/04/24 10:09:16;;;;;;;5.82;5.35;;;;;;;22.74;35.65;100553.25;10304749;28;20058;-75
2022/04/24 10:14:17;;;;;;;6.10;5.60;;;;;;;22.49;35.72;100554.28;10320909;28;20490;-75
2022/04/24 10:19:38;;;;;;;10.45;6.47;;;;;;;22.34;36.81;100551.59;10338979;28;20081;-75
2022/04/24 10:24:42;;;;;;;8.05;6.63;;;;;;;21.78;37.03;100558.16;10321438;28;20130;-75
2022/04/24 10:29:52;;;;;;;7.75;6.35;;;;;;;21.97;36.78;100577.66;10305913;28;20046;-77
2022/04/24 10:34:53;;;;;;;8.95;5.57;;;;;;;21.50;38.20;100578.88;10339980;28;20030;-75
2022/04/24 10:39:54;;;;;;;19.13;5.72;;;;;;;22.32;36.72;100584.16;10322851;28;20137;-77
2022/04/24 10:44:55;;;;;;;5.70;5.20;;;;;;;22.81;35.42;100566.72;10323161;28;20056;-77
2022/04/24 10:50:09;;;;;;;5.80;5.25;;;;;;;22.92;35.47;100573.03;10343218;28;20061;-74
2022/04/24 10:55:13;;;;;;;6.22;5.72;;;;;;;22.56;35.28;100576.03;10329658;28;20034;-75
2022/04/24 11:00:16;;;;;;;7.50;6.47;;;;;;;22.91;36.25;100557.53;10345826;28;20046;-76
2022/04/24 11:05:23;;;;;;;9.80;5.78;;;;;;;22.33;36.84;100560.16;10342683;28;20030;-77
2022/04/24 11:10:24;;;;;;;6.68;6.05;;;;;;;22.23;36.42;100553.56;10309155;28;20058;-73
2022/04/24 11:15:24;;;;;;;5.82;5.30;;;;;;;22.24;36.39;100551.66;10322631;28;20026;-74
2022/04/24 11:20:31;;;;;;;6.57;6.07;;;;;;;22.59;36.10;100552.53;10343471;28;20069;-77
2022/04/24 11:25:37;;;;;;;;;;;;;;;21.62;38.00;100553.78;10327347;28;20034;-77
2022/04/24 11:30:38;;;;;;;23.17;6.17;;;;;;;22.28;37.09;100561.00;10343320;28;19973;-76
2022/04/24 11:35:39;;;;;;;5.97;5.55;;;;;;;21.72;38.01;100573.03;10325302;28;20042;-78
2022/04/24 11:40:43;;;;;;;5.97;5.47;;;;;;;22.60;36.67;100554.19;10328226;28;20085;-77
2022/04/24 11:51:07;;;;;;;5.38;4.88;;;;;;;22.61;36.64;100561.38;10345543;28;20039;-77
2022/04/24 11:56:09;;;;;;;5.95;5.40;;;;;;;22.23;36.42;100561.03;10339468;28;20034;-75
2022/04/24 12:01:12;;;;;;;7.03;6.40;;;;;;;22.21;34.73;100574.28;10319833;28;20045;-75
2022/04/24 12:06:13;;;;;;;6.05;5.30;;;;;;;22.47;35.63;100564.75;10337574;28;20038;-75
2022/04/24 12:11:27;;;;;;;9.38;5.50;;;;;;;22.27;34.98;100564.84;10301222;28;20117;-75
2022/04/24 12:16:27;;;;;;;4.88;4.55;;;;;;;21.79;35.75;100568.09;10304208;28;20504;-76
2022/04/24 12:21:28;;;;;;;6.57;6.00;;;;;;;21.39;35.29;100576.44;10373726;28;20041;-76
2022/04/24 12:26:28;;;;;;;9.40;5.05;;;;;;;20.74;36.71;100576.09;10374395;28;20048;-76
2022/04/24 12:31:29;;;;;;;5.65;4.25;;;;;;;20.71;36.80;100583.00;10356574;28;20034;-76
2022/04/24 12:36:29;;;;;;;5.75;4.35;;;;;;;21.43;35.12;100583.03;10374037;28;20398;-75
2022/04/24 12:41:30;;;;;;;6.18;4.97;;;;;;;21.84;32.71;100572.75;10373298;28;20058;-75
2022/04/24 12:46:31;;;;;;;5.25;4.78;;;;;;;21.85;32.33;100579.06;10380528;28;20072;-74
2022/04/24 12:51:31;;;;;;;5.45;3.67;;;;;;;21.02;34.55;100575.56;10363426;28;20041;-75
2022/04/24 12:56:32;;;;;;;3.35;3.15;;;;;;;21.43;33.18;100581.09;10382076;28;20096;-74
2022/04/24 13:01:33;;;;;;;7.07;3.10;;;;;;;21.94;32.55;100580.16;10380096;28;20052;-74
2022/04/24 13:06:33;;;;;;;3.38;3.13;;;;;;;21.96;31.42;100572.44;10381631;28;20044;-76
2022/04/24 13:11:33;;;;;;;8.38;3.67;;;;;;;21.98;32.17;100582.06;10348254;28;20034;-76
2022/04/24 13:21:53;;;;;;;3.22;2.92;;;;;;;22.04;31.64;100585.63;10380376;28;20121;-75
2022/04/24 13:26:53;;;;;;;3.15;2.95;;;;;;;21.62;31.98;100570.31;10381029;28;20097;-75
2022/04/24 13:31:54;;;;;;;2.88;2.35;;;;;;;22.09;31.49;100579.28;10362628;28;20093;-74
2022/04/24 13:42:14;;;;;;;3.70;3.40;;;;;;;21.12;31.48;100574.75;10379302;28;20465;-76
2022/04/24 13:47:19;;;;;;;5.28;3.67;;;;;;;20.94;33.43;100576.16;10379766;28;20049;-75
2022/04/24 13:52:20;;;;;;;3.03;2.80;;;;;;;20.94;32.67;100561.56;10362743;28;20034;-75
2022/04/24 13:57:20;;;;;;;3.78;3.47;;;;;;;20.52;32.86;100577.19;10378199;28;20438;-75
2022/04/24 14:02:21;;;;;;;9.93;3.53;;;;;;;21.00;32.97;100585.25;10378568;28;20053;-75
2022/04/24 14:07:21;;;;;;;3.28;2.97;;;;;;;21.21;32.10;100577.78;10379961;28;20038;-75
2022/04/24 14:12:22;;;;;;;4.65;3.72;;;;;;;21.18;32.16;100586.59;10380092;28;20077;-76
2022/04/24 14:17:23;;;;;;;2.75;2.53;;;;;;;20.32;33.12;100588.09;10361978;28;20380;-75
2022/04/24 14:22:23;;;;;;;3.45;3.15;;;;;;;20.23;33.16;100593.31;10378251;28;20117;-75
2022/04/24 14:27:24;;;;;;;3.90;2.78;;;;;;;19.50;34.48;100595.91;10377927;28;20038;-76
2022/04/24 14:32:25;;;;;;;5.03;3.90;;;;;;;19.11;35.08;100598.88;10360328;28;20117;-75
2022/04/24 14:37:25;;;;;;;2.90;2.70;;;;;;;18.20;38.11;100605.06;10378245;28;20075;-76
2022/04/24 14:42:26;;;;;;;2.50;2.30;;;;;;;18.99;37.90;100598.25;10378508;28;20033;-76
2022/04/24 14:58:04;;;;;;;4.57;2.80;;;;;;;18.63;37.58;100610.75;10376181;28;20042;-78
2022/04/24 15:03:05;;;;;;;5.57;2.92;;;;;;;18.68;36.15;100622.59;10376368;28;20450;-76
2022/04/24 15:08:06;;;;;;;3.50;3.20;;;;;;;18.42;37.06;100615.19;10378390;28;20030;-76
2022/04/24 15:13:06;;;;;;;2.40;2.20;;;;;;;18.36;37.77;100612.38;10377139;28;20069;-77
2022/04/24 15:18:07;;;;;;;3.65;2.75;;;;;;;18.40;37.76;100622.81;10377263;28;20108;-78
2022/04/24 15:23:07;;;;;;;2.70;2.50;;;;;;;18.11;38.83;100636.72;10344127;28;20034;-75
2022/04/24 15:28:09;;;;;;;2.45;2.20;;;;;;;17.91;39.15;100626.31;10376124;28;20100;-77
2022/04/24 15:33:10;;;;;;;4.68;2.47;;;;;;;17.94;37.68;100631.31;10377810;28;20069;-77
2022/04/24 15:38:10;;;;;;;3.05;2.65;;;;;;;17.65;39.34;100639.63;10375681;28;20532;-78
2022/04/24 15:43:11;;;;;;;2.65;2.45;;;;;;;17.43;41.17;100641.47;10357895;28;20045;-76
2022/04/24 15:48:11;;;;;;;4.57;2.58;;;;;;;17.22;43.20;100653.97;10375311;28;20038;-77
2022/04/24 15:53:12;;;;;;;11.80;2.60;;;;;;;16.93;43.47;100653.19;10374959;28;20501;-77
2022/04/24 15:58:12;;;;;;;3.20;2.88;;;;;;;16.48;45.69;100659.41;10374626;28;20045;-77
2022/04/24 16:03:13;;;;;;;2.67;2.47;;;;;;;15.97;48.40;100659.16;10374335;28;20153;-77
2022/04/24 16:08:13;;;;;;;8.50;2.67;;;;;;;15.57;49.86;100670.78;10356527;28;20040;-77
2022/04/24 16:13:14;;;;;;;4.00;2.35;;;;;;;15.39;49.45;100670.84;10373447;28;20049;-76
2022/04/24 16:18:16;;;;;;;4.18;2.72;;;;;;;15.26;51.61;100677.34;10374136;28;20042;-77
2022/04/24 16:23:16;;;;;;;7.00;3.20;;;;;;;15.39;52.51;100672.75;10356569;28;20049;-77
2022/04/24 16:28:17;;;;;;;3.70;3.28;;;;;;;15.32;54.35;100665.50;10374368;28;20113;-75
2022/04/24 16:33:17;;;;;;;3.42;3.13;;;;;;;15.30;53.92;100685.91;10373442;28;20026;-77
2022/04/24 16:38:17;;;;;;;7.28;3.60;;;;;;;15.14;57.09;100692.84;10356486;28;20128;-75
2022/04/24 16:43:18;;;;;;;4.32;4.03;;;;;;;15.10;57.69;100688.94;10373878;28;20033;-76
2022/04/24 16:48:18;;;;;;;11.23;4.88;;;;;;;14.95;58.58;100688.53;10356798;28;20068;-76
2022/04/24 16:58:47;;;;;;;4.30;3.90;;;;;;;14.55;59.49;100697.22;10374839;28;20120;-75
2022/04/24 17:03:50;;;;;;;4.07;3.78;;;;;;;14.41;59.13;100685.63;10373882;28;20141;-76
2022/04/24 17:08:51;;;;;;;4.22;3.65;;;;;;;14.40;60.23;100697.59;10357306;28;20366;-75
2022/04/24 17:13:51;;;;;;;7.72;4.10;;;;;;;14.27;60.43;100703.22;10360685;28;20030;-79
2022/04/24 17:18:52;;;;;;;5.47;3.72;;;;;;;14.18;60.96;100714.38;10380819;28;20052;-76
2022/04/24 17:23:52;;;;;;;3.88;3.58;;;;;;;14.14;62.13;100709.63;10379765;28;20038;-77
2022/04/24 17:28:53;;;;;;;4.00;3.42;;;;;;;13.90;61.82;100714.03;10375417;28;20041;-76
2022/04/24 17:33:53;;;;;;;17.30;4.13;;;;;;;13.79;61.54;100717.50;10387756;28;20037;-77
2022/04/24 17:38:55;;;;;;;7.50;3.95;;;;;;;13.80;62.14;100724.63;10382325;28;20058;-76
2022/04/24 17:43:55;;;;;;;7.78;4.05;;;;;;;13.78;61.07;100735.72;10381062;28;20041;-77
2022/04/24 17:48:56;;;;;;;3.80;3.50;;;;;;;13.58;63.47;100735.06;10366050;28;20425;-76
2022/04/24 17:53:56;;;;;;;2.95;2.67;;;;;;;13.55;62.48;100739.03;10382050;28;20473;-77
2022/04/24 17:58:58;;;;;;;3.58;3.28;;;;;;;13.39;64.63;100747.75;10362087;28;20054;-75
2022/04/24 18:03:58;;;;;;;18.20;4.80;;;;;;;13.30;64.47;100754.50;10362227;28;20029;-77
2022/04/24 18:08:59;;;;;;;3.78;2.90;;;;;;;13.13;65.02;100760.41;10379248;28;20030;-78
2022/04/24 18:14:00;;;;;;;4.25;3.67;;;;;;;13.08;64.11;100768.41;10379762;28;20041;-76
2022/04/24 18:19:02;;;;;;;7.22;3.92;;;;;;;12.84;66.92;100763.72;10379331;28;20149;-76
2022/04/24 18:24:04;;;;;;;7.65;3.85;;;;;;;12.72;68.06;100768.97;10361135;28;20069;-76
2022/04/24 18:29:05;;;;;;;3.75;2.88;;;;;;;12.57;66.78;100783.66;10360959;28;20089;-76
2022/04/24 18:34:05;;;;;;;9.25;3.58;;;;;;;12.31;71.06;100798.13;10360205;28;20076;-77
2022/04/24 18:39:06;;;;;;;4.25;3.85;;;;;;;12.23;69.41;100795.66;10359878;28;20110;-77
2022/04/24 18:44:06;;;;;;;4.43;3.95;;;;;;;12.02;71.48;100795.88;10377247;28;20462;-76
2022/04/24 18:49:07;;;;;;;4.60;3.53;;;;;;;11.78;73.64;100800.84;10377137;28;20034;-77
2022/04/24 18:54:08;;;;;;;6.78;4.72;;;;;;;11.63;74.27;100819.19;10376868;28;20542;-76
2022/04/24 18:59:08;;;;;;;12.25;4.00;;;;;;;11.54;72.20;100825.84;10376817;28;20061;-75
2022/04/24 19:14:46;;;;;;;4.70;3.83;;;;;;;11.10;75.98;100847.00;10376554;28;20030;-77
2022/04/24 19:19:47;;;;;;;8.90;4.82;;;;;;;10.97;76.22;100851.50;10359721;28;20462;-77
2022/04/24 19:24:47;;;;;;;6.25;3.65;;;;;;;10.83;77.98;100864.16;10377026;28;20073;-78
2022/04/24 19:29:48;;;;;;;9.48;4.30;;;;;;;10.69;79.51;100883.06;10381280;28;20041;-76
2022/04/24 19:34:48;;;;;;;9.43;4.15;;;;;;;10.62;78.90;100882.16;10374553;28;20057;-77
2022/04/24 19:39:49;;;;;;;5.50;2.92;;;;;;;10.52;79.44;100892.50;10358952;28;20136;-75
2022/04/24 19:44:49;;;;;;;7.40;4.57;;;;;;;10.43;80.58;100899.09;10376597;28;20455;-76
2022/04/24 19:49:50;;;;;;;4.35;3.95;;;;;;;10.34;80.24;100898.41;10356846;28;20401;-76
2022/04/24 19:54:51;;;;;;;10.10;4.82;;;;;;;10.23;81.37;100909.72;10357695;28;20058;-76
2022/04/24 19:59:51;;;;;;;14.55;5.35;;;;;;;10.18;81.04;100909.50;10356680;28;20065;-76
2022/04/24 20:04:52;;;;;;;6.57;4.07;;;;;;;10.12;81.79;100919.22;10375188;28;20049;-76
2022/04/24 20:09:52;;;;;;;5.20;4.10;;;;;;;10.00;82.74;100905.38;10356864;28;20046;-77
2022/04/24 20:14:53;;;;;;;10.00;4.88;;;;;;;9.95;81.99;100923.19;10357261;28;20042;-74
2022/04/24 20:19:53;;;;;;;4.15;3.65;;;;;;;9.75;84.57;100923.00;10373358;28;20508;-75
2022/04/24 20:24:55;;;;;;;5.15;4.22;;;;;;;9.73;85.18;100943.97;10373552;28;20125;-75
2022/04/24 20:29:58;;;;;;;9.45;4.68;;;;;;;9.65;85.77;100933.28;10357034;28;20052;-76
2022/04/24 20:34:58;;;;;;;10.63;4.65;;;;;;;9.61;85.23;100932.00;10357562;28;20034;-76
2022/04/24 20:39:59;;;;;;;6.70;4.55;;;;;;;9.53;86.09;100941.88;10357049;28;20062;-77
2022/04/24 20:45:00;;;;;;;17.83;5.95;;;;;;;9.53;84.86;100952.69;10355988;28;20060;-78
2022/04/24 20:50:00;;;;;;;9.45;5.53;;;;;;;9.42;85.26;100945.09;10357288;28;20041;-77
2022/04/24 20:55:01;;;;;;;7.07;4.68;;;;;;;9.27;87.35;100945.09;10356125;28;20030;-76
2022/04/24 21:00:01;;;;;;;17.48;7.05;;;;;;;9.28;86.41;100954.91;10372658;28;20032;-76
2022/04/24 21:05:03;;;;;;;7.55;5.13;;;;;;;9.31;84.24;100956.38;10357069;28;20109;-76
2022/04/24 21:10:10;;;;;;;9.35;5.60;;;;;;;9.22;83.77;100946.69;10347960;28;20053;-74
2022/04/24 21:15:10;;;;;;;;;;;;;;;9.15;85.78;100959.28;10350673;28;20146;-75
2022/04/24 21:20:10;;;;;;;5.70;5.13;;;;;;;9.10;86.07;100967.94;10380904;28;20357;-77
2022/04/24 21:25:11;;;;;;;7.50;5.47;;;;;;;8.98;87.87;100972.13;10380843;28;20061;-75
2022/04/24 21:30:11;;;;;;;6.35;4.65;;;;;;;8.94;86.76;100979.75;10379973;28;20363;-76
2022/04/24 21:35:12;;;;;;;8.23;4.88;;;;;;;8.92;85.85;100987.19;10381126;28;20049;-76
2022/04/24 21:40:12;;;;;;;15.60;8.68;;;;;;;8.89;85.08;100992.97;10380965;28;20064;-76
2022/04/24 21:45:13;;;;;;;11.90;6.15;;;;;;;8.84;87.31;101004.34;10379688;28;20069;-78
2022/04/24 21:50:13;;;;;;;8.73;5.95;;;;;;;8.83;87.58;100999.94;10379370;28;20111;-77
2022/04/24 21:55:13;;;;;;;7.30;5.35;;;;;;;8.79;86.27;101003.19;10379690;28;20088;-75
2022/04/24 22:00:32;;;;;;;5.97;4.57;;;;;;;8.74;88.17;101002.91;10363231;28;20462;-76
2022/04/24 22:05:33;;;;;;;8.73;7.18;;;;;;;8.70;88.00;101007.00;10379766;28;20048;-76
2022/04/24 22:10:33;;;;;;;21.02;7.88;;;;;;;8.68;88.28;101017.13;10379702;28;20038;-77
2022/04/24 22:15:34;;;;;;;8.70;4.55;;;;;;;8.58;90.54;101018.25;10377675;28;20042;-76
2022/04/24 22:20:35;;;;;;;11.82;5.00;;;;;;;8.65;86.85;101023.75;10360988;28;20125;-76
2022/04/24 22:25:35;;;;;;;6.28;4.80;;;;;;;8.54;88.95;101016.91;10361051;28;20108;-76
2022/04/24 22:30:35;;;;;;;6.82;6.22;;;;;;;8.50;90.65;101023.69;10378843;28;20121;-77
2022/04/24 22:35:36;;;;;;;12.73;5.35;;;;;;;8.53;90.74;101014.41;10360652;28;20030;-77
2022/04/24 22:40:37;;;;;;;9.93;5.03;;;;;;;8.47;90.23;101020.53;10362739;28;20050;-77
2022/04/24 22:45:38;;;;;;;9.68;7.07;;;;;;;8.42;89.57;101023.75;10360244;28;20389;-76
2022/04/24 22:50:39;;;;;;;5.18;4.35;;;;;;;8.36;89.42;101029.84;10379847;28;20042;-76
2022/04/24 22:55:40;;;;;;;17.00;7.35;;;;;;;8.32;89.48;101031.22;10378406;28;20030;-77
2022/04/24 23:00:40;;;;;;;9.25;6.07;;;;;;;8.26;86.62;101035.47;10376465;28;20061;-77
2022/04/24 23:05:40;;;;;;;14.38;6.30;;;;;;;8.16;87.09;101037.56;10377580;28;20038;-76
2022/04/24 23:10:41;;;;;;;9.90;7.22;;;;;;;8.10;88.05;101044.53;10359360;28;20041;-76
2022/04/24 23:15:41;;;;;;;7.63;5.90;;;;;;;8.06;88.29;101048.56;10376568;28;20091;-77
2022/04/24 23:20:42;;;;;;;11.25;6.60;;;;;;;8.00;90.89;101051.97;10376206;28;20462;-78
2022/04/24 23:25:42;;;;;;;11.07;5.78;;;;;;;7.97;89.66;101041.53;10362143;28;20080;-77
2022/04/24 23:30:44;;;;;;;13.90;6.63;;;;;;;7.97;88.86;101057.72;10361533;28;20034;-77
2022/04/24 23:35:45;;;;;;;10.00;6.80;;;;;;;7.92;88.86;101055.56;10362701;28;20478;-76
2022/04/24 23:40:46;;;;;;;10.88;7.15;;;;;;;7.83;89.02;101050.41;10362169;28;20058;-75
2022/04/24 23:45:46;;;;;;;14.80;7.65;;;;;;;7.77;88.53;101046.53;10378654;28;20062;-77